WXM80 ListenWXM80 Stop

You find our weather info also at:

UK Metoffice

WeatherCloud

Weather Underground

Northeastern Weather Network

AWEKAS

Citizen Weather Observer Program (CWOP)

HAMweather, WeatherForYou, PWS Weather


Weather Underground History page Text

Daily Summary for July 23, 2017 Units:  Both    English   Metric
« Previous Day
Next Day »
Daily Weekly Monthly Yearly Custom
  High: Low: Average:
Temperature: 83.4 °F /  28.6 °C 70.6 °F /  21.4 °C 74.9 °F /  23.8 °C
Dew Point: 72.8 °F /  22.7 °C 65.8 °F /  18.8 °C 69.4 °F /  20.8 °C
Humidity: 95 % 69 % 83 %
Wind Speed: 3.9 mph /  6.3 km/h - 0.8 mph /  1.3 km/h
Wind Gust: 9.2 mph /  14.8 km/h - -
Wind:- - ESE
Pressure: 29.84 in /  1010.4 hPa 29.67 in /  1004.6 hPa -
Precipitation: 0.08 in /  2.03 mm    
Historical Graphs
 
 
Tabular Data for July 23, 2017
Time Temperature Dew Point Pressure Wind Wind Speed Wind Gust Humidity Rainfall Rate (Hourly)
00:01 74.4 °F /  23.6 °C 69.6 °F /  20.9 °C 29.70 in /  1005.6 hPa Calm     85 % 0.00 in /  0 mm
00:06 74.3 °F /  23.5 °C 69.5 °F /  20.8 °C 29.70 in /  1005.6 hPa Calm     85 % 0.00 in /  0 mm
00:11 74.2 °F /  23.4 °C 69.7 °F /  20.9 °C 29.70 in /  1005.6 hPa Calm     86 % 0.00 in /  0 mm
00:12 74.2 °F /  23.4 °C 69.7 °F /  20.9 °C 29.70 in /  1005.6 hPa Calm     86 % 0.00 in /  0 mm
00:17 74.1 °F /  23.4 °C 69.3 °F /  20.7 °C 29.70 in /  1005.6 hPa Calm     85 % 0.00 in /  0 mm
00:22 74.2 °F /  23.4 °C 69.4 °F /  20.8 °C 29.69 in /  1005.3 hPa SE 0.3 mph /  0.5 km/h 3.5 mph /  5.6 km/h 85 % 0.00 in /  0 mm
00:27 74.4 °F /  23.6 °C 69.2 °F /  20.7 °C 29.69 in /  1005.3 hPa SE 0.8 mph /  1.3 km/h 2.3 mph /  3.7 km/h 84 % 0.00 in /  0 mm
00:32 74.5 °F /  23.6 °C 69.3 °F /  20.7 °C 29.69 in /  1005.3 hPa SE 0.9 mph /  1.4 km/h 3.5 mph /  5.6 km/h 84 % 0.00 in /  0 mm
00:37 74.6 °F /  23.7 °C 69.4 °F /  20.8 °C 29.69 in /  1005.3 hPa SE 0.1 mph /  0.2 km/h 1.2 mph /  1.9 km/h 84 % 0.00 in /  0 mm
00:42 74.6 °F /  23.7 °C 69.4 °F /  20.8 °C 29.69 in /  1005.3 hPa Calm   1.2 mph /  1.9 km/h 84 % 0.00 in /  0 mm
00:47 74.6 °F /  23.7 °C 69.8 °F /  21 °C 29.69 in /  1005.3 hPa Calm     85 % 0.00 in /  0 mm
00:52 74.6 °F /  23.7 °C 69.8 °F /  21 °C 29.69 in /  1005.3 hPa Calm     85 % 0.00 in /  0 mm
00:57 74.6 °F /  23.7 °C 69.8 °F /  21 °C 29.69 in /  1005.3 hPa Calm     85 % 0.01 in /  0.25 mm
01:02 74.5 °F /  23.6 °C 70.0 °F /  21.1 °C 29.69 in /  1005.3 hPa North 1.4 mph /  2.3 km/h 3.0 mph /  4.8 km/h 86 % 0.01 in /  0.25 mm
01:07 74.5 °F /  23.6 °C 70.0 °F /  21.1 °C 29.68 in /  1005 hPa Calm     86 % 0.01 in /  0.25 mm
01:12 74.4 °F /  23.6 °C 69.9 °F /  21.1 °C 29.68 in /  1005 hPa Calm     86 % 0.01 in /  0.25 mm
01:17 74.4 °F /  23.6 °C 70.3 °F /  21.3 °C 29.68 in /  1005 hPa Calm   1.2 mph /  1.9 km/h 87 % 0.02 in /  0.51 mm
01:22 74.4 °F /  23.6 °C 70.6 °F /  21.4 °C 29.68 in /  1005 hPa Calm     88 % 0.02 in /  0.51 mm
01:27 74.3 °F /  23.5 °C 70.8 °F /  21.6 °C 29.68 in /  1005 hPa Calm     89 % 0.03 in /  0.76 mm
01:32 74.2 °F /  23.4 °C 70.7 °F /  21.5 °C 29.68 in /  1005 hPa Calm     89 % 0.04 in /  1.02 mm
01:37 74.2 °F /  23.4 °C 70.7 °F /  21.5 °C 29.69 in /  1005.3 hPa Calm     89 % 0.05 in /  1.27 mm
01:42 74.1 °F /  23.4 °C 71.0 °F /  21.7 °C 29.68 in /  1005 hPa Calm     90 % 0.06 in /  1.52 mm
01:47 74.0 °F /  23.3 °C 70.9 °F /  21.6 °C 29.68 in /  1005 hPa Calm     90 % 0.06 in /  1.52 mm
01:52 74.0 °F /  23.3 °C 70.9 °F /  21.6 °C 29.68 in /  1005 hPa Calm     90 % 0.07 in /  1.78 mm
01:57 73.9 °F /  23.3 °C 70.8 °F /  21.6 °C 29.68 in /  1005 hPa Calm     90 % 0.06 in /  1.52 mm
02:02 73.9 °F /  23.3 °C 71.1 °F /  21.7 °C 29.68 in /  1005 hPa Calm     91 % 0.06 in /  1.52 mm
02:07 73.9 °F /  23.3 °C 71.1 °F /  21.7 °C 29.68 in /  1005 hPa North 0.1 mph /  0.2 km/h 1.2 mph /  1.9 km/h 91 % 0.06 in /  1.52 mm
02:12 73.8 °F /  23.2 °C 71.0 °F /  21.7 °C 29.67 in /  1004.6 hPa SSE 1.1 mph /  1.8 km/h 4.0 mph /  6.4 km/h 91 % 0.06 in /  1.52 mm
02:17 73.5 °F /  23.1 °C 71.0 °F /  21.7 °C 29.67 in /  1004.6 hPa SSE 0.7 mph /  1.1 km/h 3.5 mph /  5.6 km/h 92 % 0.05 in /  1.27 mm
02:22 73.2 °F /  22.9 °C 70.4 °F /  21.3 °C 29.67 in /  1004.6 hPa SE 0.5 mph /  0.8 km/h 2.3 mph /  3.7 km/h 91 % 0.05 in /  1.27 mm
02:27 73.0 °F /  22.8 °C 70.2 °F /  21.2 °C 29.67 in /  1004.6 hPa SE 0.5 mph /  0.8 km/h 2.3 mph /  3.7 km/h 91 % 0.04 in /  1.02 mm
02:32 72.8 °F /  22.7 °C 69.7 °F /  20.9 °C 29.67 in /  1004.6 hPa Calm   1.2 mph /  1.9 km/h 90 % 0.03 in /  0.76 mm
02:37 72.5 °F /  22.5 °C 69.1 °F /  20.6 °C 29.67 in /  1004.6 hPa SSE 1.8 mph /  2.9 km/h 4.6 mph /  7.4 km/h 89 % 0.03 in /  0.76 mm
02:42 72.1 °F /  22.3 °C 68.7 °F /  20.4 °C 29.67 in /  1004.6 hPa SE 1.6 mph /  2.6 km/h 3.5 mph /  5.6 km/h 89 % 0.02 in /  0.51 mm
02:47 71.9 °F /  22.2 °C 68.8 °F /  20.4 °C 29.67 in /  1004.6 hPa Calm     90 % 0.02 in /  0.51 mm
02:52 71.8 °F /  22.1 °C 68.7 °F /  20.4 °C 29.67 in /  1004.6 hPa Calm     90 % 0.01 in /  0.25 mm
02:57 71.7 °F /  22.1 °C 68.6 °F /  20.3 °C 29.67 in /  1004.6 hPa Calm     90 % 0.01 in /  0.25 mm
03:02 71.7 °F /  22.1 °C 68.6 °F /  20.3 °C 29.67 in /  1004.6 hPa Calm     90 % 0.01 in /  0.25 mm
03:07 71.6 °F /  22 °C 68.5 °F /  20.3 °C 29.67 in /  1004.6 hPa Calm     90 % 0.01 in /  0.25 mm
03:12 71.5 °F /  21.9 °C 68.7 °F /  20.4 °C 29.67 in /  1004.6 hPa Calm     91 % 0.01 in /  0.25 mm
03:17 71.5 °F /  21.9 °C 68.7 °F /  20.4 °C 29.67 in /  1004.6 hPa Calm     91 % 0.01 in /  0.25 mm
03:20 71.4 °F /  21.9 °C 68.6 °F /  20.3 °C 29.67 in /  1004.6 hPa Calm     91 % 0.01 in /  0.25 mm
03:25 71.4 °F /  21.9 °C 68.6 °F /  20.3 °C 29.67 in /  1004.6 hPa Calm     91 % 0.01 in /  0.25 mm
03:30 71.3 °F /  21.8 °C 68.5 °F /  20.3 °C 29.67 in /  1004.6 hPa Calm     91 % 0.01 in /  0.25 mm
03:35 71.3 °F /  21.8 °C 68.5 °F /  20.3 °C 29.67 in /  1004.6 hPa Calm     91 % 0.00 in /  0 mm
03:40 71.2 °F /  21.8 °C 68.4 °F /  20.2 °C 29.68 in /  1005 hPa Calm     91 % 0.00 in /  0 mm
03:45 71.1 °F /  21.7 °C 68.3 °F /  20.2 °C 29.67 in /  1004.6 hPa Calm     91 % 0.00 in /  0 mm
03:50 71.1 °F /  21.7 °C 68.3 °F /  20.2 °C 29.67 in /  1004.6 hPa Calm     91 % 0.00 in /  0 mm
03:55 71.1 °F /  21.7 °C 68.3 °F /  20.2 °C 29.67 in /  1004.6 hPa SE 0.1 mph /  0.2 km/h   91 % 0.00 in /  0 mm
04:00 71.0 °F /  21.7 °C 68.2 °F /  20.1 °C 29.68 in /  1005 hPa Calm     91 % 0.00 in /  0 mm
04:06 71.0 °F /  21.7 °C 68.2 °F /  20.1 °C 29.68 in /  1005 hPa Calm     91 % 0.00 in /  0 mm
04:11 71.0 °F /  21.7 °C 68.2 °F /  20.1 °C 29.68 in /  1005 hPa Calm     91 % 0.00 in /  0 mm
04:16 70.9 °F /  21.6 °C 68.5 °F /  20.3 °C 29.68 in /  1005 hPa Calm     92 % 0.00 in /  0 mm
04:21 70.9 °F /  21.6 °C 68.5 °F /  20.3 °C 29.68 in /  1005 hPa Calm     92 % 0.00 in /  0 mm
04:27 70.8 °F /  21.6 °C 68.4 °F /  20.2 °C 29.69 in /  1005.3 hPa Calm     92 % 0.00 in /  0 mm
04:32 70.8 °F /  21.6 °C 68.4 °F /  20.2 °C 29.69 in /  1005.3 hPa Calm     92 % 0.00 in /  0 mm
04:37 70.8 °F /  21.6 °C 68.4 °F /  20.2 °C 29.69 in /  1005.3 hPa Calm     92 % 0.00 in /  0 mm
04:42 70.7 °F /  21.5 °C 68.3 °F /  20.2 °C 29.69 in /  1005.3 hPa Calm     92 % 0.00 in /  0 mm
04:47 70.7 °F /  21.5 °C 68.3 °F /  20.2 °C 29.69 in /  1005.3 hPa Calm     92 % 0.00 in /  0 mm
04:52 70.7 °F /  21.5 °C 68.3 °F /  20.2 °C 29.69 in /  1005.3 hPa Calm     92 % 0.00 in /  0 mm
04:57 70.7 °F /  21.5 °C 68.6 °F /  20.3 °C 29.69 in /  1005.3 hPa Calm     93 % 0.00 in /  0 mm
05:02 70.7 °F /  21.5 °C 68.6 °F /  20.3 °C 29.70 in /  1005.6 hPa Calm     93 % 0.00 in /  0 mm
05:07 70.7 °F /  21.5 °C 68.6 °F /  20.3 °C 29.70 in /  1005.6 hPa Calm     93 % 0.00 in /  0 mm
05:12 70.7 °F /  21.5 °C 68.6 °F /  20.3 °C 29.70 in /  1005.6 hPa Calm     93 % 0.00 in /  0 mm
05:17 70.7 °F /  21.5 °C 68.6 °F /  20.3 °C 29.70 in /  1005.6 hPa Calm     93 % 0.00 in /  0 mm
05:22 70.6 °F /  21.4 °C 68.5 °F /  20.3 °C 29.70 in /  1005.6 hPa Calm     93 % 0.00 in /  0 mm
05:27 70.6 °F /  21.4 °C 68.5 °F /  20.3 °C 29.70 in /  1005.6 hPa Calm     93 % 0.00 in /  0 mm
05:32 70.6 °F /  21.4 °C 68.5 °F /  20.3 °C 29.70 in /  1005.6 hPa Calm     93 % 0.00 in /  0 mm
05:37 70.6 °F /  21.4 °C 68.5 °F /  20.3 °C 29.70 in /  1005.6 hPa Calm     93 % 0.00 in /  0 mm
05:43 70.7 °F /  21.5 °C 68.6 °F /  20.3 °C 29.70 in /  1005.6 hPa Calm     93 % 0.00 in /  0 mm
05:48 70.7 °F /  21.5 °C 68.6 °F /  20.3 °C 29.70 in /  1005.6 hPa Calm     93 % 0.00 in /  0 mm
05:53 70.7 °F /  21.5 °C 68.6 °F /  20.3 °C 29.70 in /  1005.6 hPa Calm     93 % 0.00 in /  0 mm
05:58 70.7 °F /  21.5 °C 68.6 °F /  20.3 °C 29.70 in /  1005.6 hPa Calm     93 % 0.00 in /  0 mm
06:03 70.7 °F /  21.5 °C 68.9 °F /  20.5 °C 29.71 in /  1006 hPa Calm     94 % 0.00 in /  0 mm
06:08 70.7 °F /  21.5 °C 68.9 °F /  20.5 °C 29.71 in /  1006 hPa Calm     94 % 0.00 in /  0 mm
06:13 70.7 °F /  21.5 °C 68.9 °F /  20.5 °C 29.71 in /  1006 hPa Calm     94 % 0.00 in /  0 mm
06:18 70.7 °F /  21.5 °C 68.9 °F /  20.5 °C 29.71 in /  1006 hPa Calm     94 % 0.00 in /  0 mm
06:23 70.8 °F /  21.6 °C 69.0 °F /  20.6 °C 29.71 in /  1006 hPa Calm     94 % 0.00 in /  0 mm
06:28 70.8 °F /  21.6 °C 69.0 °F /  20.6 °C 29.71 in /  1006 hPa Calm     94 % 0.00 in /  0 mm
06:33 70.8 °F /  21.6 °C 69.0 °F /  20.6 °C 29.71 in /  1006 hPa Calm     94 % 0.00 in /  0 mm
06:38 70.8 °F /  21.6 °C 69.0 °F /  20.6 °C 29.71 in /  1006 hPa Calm     94 % 0.00 in /  0 mm
06:43 70.8 °F /  21.6 °C 69.0 °F /  20.6 °C 29.71 in /  1006 hPa Calm     94 % 0.00 in /  0 mm
06:48 70.8 °F /  21.6 °C 69.0 °F /  20.6 °C 29.71 in /  1006 hPa Calm     94 % 0.00 in /  0 mm
06:53 70.7 °F /  21.5 °C 68.9 °F /  20.5 °C 29.71 in /  1006 hPa Calm     94 % 0.00 in /  0 mm
06:57 70.7 °F /  21.5 °C 68.9 °F /  20.5 °C 29.71 in /  1006 hPa Calm     94 % 0.00 in /  0 mm
07:02 70.7 °F /  21.5 °C 68.9 °F /  20.5 °C 29.72 in /  1006.3 hPa Calm     94 % 0.00 in /  0 mm
07:07 70.7 °F /  21.5 °C 68.9 °F /  20.5 °C 29.71 in /  1006 hPa Calm     94 % 0.00 in /  0 mm
07:12 70.7 °F /  21.5 °C 68.9 °F /  20.5 °C 29.71 in /  1006 hPa Calm     94 % 0.00 in /  0 mm
07:17 70.8 °F /  21.6 °C 69.0 °F /  20.6 °C 29.71 in /  1006 hPa Calm     94 % 0.00 in /  0 mm
07:22 70.9 °F /  21.6 °C 69.1 °F /  20.6 °C 29.71 in /  1006 hPa Calm     94 % 0.00 in /  0 mm
07:27 71.1 °F /  21.7 °C 69.6 °F /  20.9 °C 29.72 in /  1006.3 hPa Calm     95 % 0.00 in /  0 mm
07:32 71.2 °F /  21.8 °C 69.7 °F /  20.9 °C 29.72 in /  1006.3 hPa Calm     95 % 0.00 in /  0 mm
07:37 71.3 °F /  21.8 °C 69.8 °F /  21 °C 29.72 in /  1006.3 hPa Calm     95 % 0.00 in /  0 mm
07:42 71.5 °F /  21.9 °C 70.0 °F /  21.1 °C 29.72 in /  1006.3 hPa Calm     95 % 0.00 in /  0 mm
07:47 71.6 °F /  22 °C 70.1 °F /  21.2 °C 29.72 in /  1006.3 hPa Calm     95 % 0.00 in /  0 mm
07:52 71.7 °F /  22.1 °C 70.2 °F /  21.2 °C 29.72 in /  1006.3 hPa Calm     95 % 0.00 in /  0 mm
07:57 71.9 °F /  22.2 °C 70.4 °F /  21.3 °C 29.73 in /  1006.7 hPa Calm     95 % 0.00 in /  0 mm
08:02 72.0 °F /  22.2 °C 70.5 °F /  21.4 °C 29.73 in /  1006.7 hPa Calm     95 % 0.00 in /  0 mm
08:07 72.2 °F /  22.3 °C 70.7 °F /  21.5 °C 29.73 in /  1006.7 hPa SE 0.1 mph /  0.2 km/h 2.3 mph /  3.7 km/h 95 % 0.00 in /  0 mm
08:12 72.4 °F /  22.4 °C 70.9 °F /  21.6 °C 29.73 in /  1006.7 hPa SE 0.3 mph /  0.5 km/h 1.0 mph /  1.6 km/h 95 % 0.00 in /  0 mm
08:17 72.5 °F /  22.5 °C 71.0 °F /  21.7 °C 29.73 in /  1006.7 hPa Calm     95 % 0.00 in /  0 mm
08:22 72.7 °F /  22.6 °C 71.2 °F /  21.8 °C 29.73 in /  1006.7 hPa Calm     95 % 0.00 in /  0 mm
08:27 72.8 °F /  22.7 °C 71.3 °F /  21.8 °C 29.74 in /  1007 hPa Calm     95 % 0.00 in /  0 mm
08:32 73.0 °F /  22.8 °C 71.5 °F /  21.9 °C 29.74 in /  1007 hPa Calm     95 % 0.00 in /  0 mm
08:37 73.1 °F /  22.8 °C 71.6 °F /  22 °C 29.74 in /  1007 hPa Calm     95 % 0.00 in /  0 mm
08:42 73.3 °F /  22.9 °C 71.5 °F /  21.9 °C 29.74 in /  1007 hPa Calm     94 % 0.00 in /  0 mm
08:48 73.4 °F /  23 °C 71.6 °F /  22 °C 29.74 in /  1007 hPa Calm   1.2 mph /  1.9 km/h 94 % 0.00 in /  0 mm
08:53 73.5 °F /  23.1 °C 71.7 °F /  22.1 °C 29.74 in /  1007 hPa Calm     94 % 0.00 in /  0 mm
08:58 73.7 °F /  23.2 °C 71.9 °F /  22.2 °C 29.74 in /  1007 hPa SE 0.2 mph /  0.3 km/h 1.2 mph /  1.9 km/h 94 % 0.00 in /  0 mm
09:02 73.7 °F /  23.2 °C 71.5 °F /  21.9 °C 29.74 in /  1007 hPa Calm   1.0 mph /  1.6 km/h 93 % 0.00 in /  0 mm
09:08 73.9 °F /  23.3 °C 71.4 °F /  21.9 °C 29.75 in /  1007.3 hPa Calm     92 % 0.00 in /  0 mm
09:13 74.0 °F /  23.3 °C 71.5 °F /  21.9 °C 29.75 in /  1007.3 hPa Calm   1.2 mph /  1.9 km/h 92 % 0.00 in /  0 mm
09:16 74.2 °F /  23.4 °C 71.7 °F /  22.1 °C 29.75 in /  1007.3 hPa SE 0.5 mph /  0.8 km/h 1.2 mph /  1.9 km/h 92 % 0.00 in /  0 mm
09:21 74.4 °F /  23.6 °C 71.6 °F /  22 °C 29.75 in /  1007.3 hPa NNE 1.3 mph /  2.1 km/h 3.5 mph /  5.6 km/h 91 % 0.00 in /  0 mm
09:26 74.6 °F /  23.7 °C 71.5 °F /  21.9 °C 29.74 in /  1007 hPa NNE 0.6 mph /  1 km/h 3.5 mph /  5.6 km/h 90 % 0.00 in /  0 mm
09:31 74.8 °F /  23.8 °C 71.0 °F /  21.7 °C 29.74 in /  1007 hPa NNE 3.5 mph /  5.6 km/h 5.8 mph /  9.3 km/h 88 % 0.00 in /  0 mm
09:36 74.9 °F /  23.8 °C 71.1 °F /  21.7 °C 29.75 in /  1007.3 hPa ENE 2.4 mph /  3.9 km/h 3.5 mph /  5.6 km/h 88 % 0.00 in /  0 mm
09:41 75.1 °F /  23.9 °C 71.0 °F /  21.7 °C 29.75 in /  1007.3 hPa NNE 2.5 mph /  4 km/h 3.5 mph /  5.6 km/h 87 % 0.00 in /  0 mm
09:46 75.2 °F /  24 °C 70.0 °F /  21.1 °C 29.75 in /  1007.3 hPa NE 3.3 mph /  5.3 km/h 5.8 mph /  9.3 km/h 84 % 0.00 in /  0 mm
09:51 75.2 °F /  24 °C 69.3 °F /  20.7 °C 29.75 in /  1007.3 hPa NE 1.6 mph /  2.6 km/h 3.5 mph /  5.6 km/h 82 % 0.00 in /  0 mm
09:56 75.3 °F /  24.1 °C 69.1 °F /  20.6 °C 29.76 in /  1007.7 hPa NE 1.1 mph /  1.8 km/h 3.5 mph /  5.6 km/h 81 % 0.00 in /  0 mm
10:01 75.4 °F /  24.1 °C 68.8 °F /  20.4 °C 29.76 in /  1007.7 hPa ENE 2.4 mph /  3.9 km/h 7.0 mph /  11.3 km/h 80 % 0.00 in /  0 mm
10:06 75.5 °F /  24.2 °C 68.9 °F /  20.5 °C 29.75 in /  1007.3 hPa ENE 1.2 mph /  1.9 km/h 2.3 mph /  3.7 km/h 80 % 0.00 in /  0 mm
10:11 75.8 °F /  24.3 °C 69.6 °F /  20.9 °C 29.76 in /  1007.7 hPa ENE 1.3 mph /  2.1 km/h 3.0 mph /  4.8 km/h 81 % 0.00 in /  0 mm
10:16 76.2 °F /  24.6 °C 69.6 °F /  20.9 °C 29.76 in /  1007.7 hPa NE 1.4 mph /  2.3 km/h 3.5 mph /  5.6 km/h 80 % 0.00 in /  0 mm
10:21 76.6 °F /  24.8 °C 69.2 °F /  20.7 °C 29.76 in /  1007.7 hPa NE 2.4 mph /  3.9 km/h 4.6 mph /  7.4 km/h 78 % 0.00 in /  0 mm
10:26 77.2 °F /  25.1 °C 69.8 °F /  21 °C 29.76 in /  1007.7 hPa ENE 3.9 mph /  6.3 km/h 9.2 mph /  14.8 km/h 78 % 0.00 in /  0 mm
10:31 77.8 °F /  25.4 °C 70.0 °F /  21.1 °C 29.76 in /  1007.7 hPa ENE 2.1 mph /  3.4 km/h 6.9 mph /  11.1 km/h 77 % 0.00 in /  0 mm
10:36 78.3 °F /  25.7 °C 70.1 °F /  21.2 °C 29.76 in /  1007.7 hPa NE 1.9 mph /  3.1 km/h 4.6 mph /  7.4 km/h 76 % 0.00 in /  0 mm
10:41 79.0 °F /  26.1 °C 70.8 °F /  21.6 °C 29.76 in /  1007.7 hPa ENE 2.5 mph /  4 km/h 4.6 mph /  7.4 km/h 76 % 0.00 in /  0 mm
10:46 79.7 °F /  26.5 °C 71.1 °F /  21.7 °C 29.77 in /  1008 hPa NE 2.0 mph /  3.2 km/h 3.5 mph /  5.6 km/h 75 % 0.00 in /  0 mm
10:51 80.4 °F /  26.9 °C 71.3 °F /  21.8 °C 29.77 in /  1008 hPa ENE 1.5 mph /  2.4 km/h 3.5 mph /  5.6 km/h 74 % 0.00 in /  0 mm
10:56 80.8 °F /  27.1 °C 70.9 °F /  21.6 °C 29.77 in /  1008 hPa NE 3.8 mph /  6.1 km/h 3.8 mph /  6.1 km/h 72 % 0.00 in /  0 mm
11:01 80.6 °F /  27 °C 71.1 °F /  21.7 °C 29.77 in /  1008 hPa ENE 1.1 mph /  1.8 km/h 2.3 mph /  3.7 km/h 73 % 0.00 in /  0 mm
11:06 80.9 °F /  27.2 °C 71.0 °F /  21.7 °C 29.77 in /  1008 hPa ENE 2.5 mph /  4 km/h 5.8 mph /  9.3 km/h 72 % 0.00 in /  0 mm
11:11 80.7 °F /  27.1 °C 70.0 °F /  21.1 °C 29.78 in /  1008.4 hPa ENE 3.2 mph /  5.1 km/h 3.5 mph /  5.6 km/h 70 % 0.00 in /  0 mm
11:16 80.9 °F /  27.2 °C 71.0 °F /  21.7 °C 29.77 in /  1008 hPa NNE 3.1 mph /  5 km/h 4.6 mph /  7.4 km/h 72 % 0.00 in /  0 mm
11:21 81.1 °F /  27.3 °C 70.8 °F /  21.6 °C 29.78 in /  1008.4 hPa ENE 3.1 mph /  5 km/h 6.9 mph /  11.1 km/h 71 % 0.00 in /  0 mm
11:27 81.5 °F /  27.5 °C 71.2 °F /  21.8 °C 29.78 in /  1008.4 hPa NE 3.2 mph /  5.1 km/h 8.0 mph /  12.9 km/h 71 % 0.00 in /  0 mm
11:32 81.6 °F /  27.6 °C 71.7 °F /  22.1 °C 29.78 in /  1008.4 hPa ENE 1.5 mph /  2.4 km/h 3.5 mph /  5.6 km/h 72 % 0.00 in /  0 mm
11:37 81.8 °F /  27.7 °C 71.5 °F /  21.9 °C 29.78 in /  1008.4 hPa ENE 1.5 mph /  2.4 km/h 4.6 mph /  7.4 km/h 71 % 0.00 in /  0 mm
11:42 82.1 °F /  27.8 °C 72.2 °F /  22.3 °C 29.78 in /  1008.4 hPa NE 1.1 mph /  1.8 km/h 3.5 mph /  5.6 km/h 72 % 0.00 in /  0 mm
11:47 82.8 °F /  28.2 °C 72.8 °F /  22.7 °C 29.77 in /  1008 hPa ENE 1.9 mph /  3.1 km/h 3.5 mph /  5.6 km/h 72 % 0.00 in /  0 mm
11:52 83.2 °F /  28.4 °C 72.8 °F /  22.7 °C 29.77 in /  1008 hPa ENE 1.8 mph /  2.9 km/h 3.5 mph /  5.6 km/h 71 % 0.00 in /  0 mm
11:57 83.4 °F /  28.6 °C 72.2 °F /  22.3 °C 29.77 in /  1008 hPa ENE 1.9 mph /  3.1 km/h 3.5 mph /  5.6 km/h 69 % 0.00 in /  0 mm
12:02 82.9 °F /  28.3 °C 71.7 °F /  22.1 °C 29.78 in /  1008.4 hPa ENE 2.0 mph /  3.2 km/h 3.5 mph /  5.6 km/h 69 % 0.00 in /  0 mm
12:07 82.5 °F /  28.1 °C 71.3 °F /  21.8 °C 29.78 in /  1008.4 hPa ENE 3.4 mph /  5.5 km/h 4.6 mph /  7.4 km/h 69 % 0.00 in /  0 mm
12:12 81.8 °F /  27.7 °C 71.1 °F /  21.7 °C 29.78 in /  1008.4 hPa ENE 2.3 mph /  3.7 km/h 8.1 mph /  13 km/h 70 % 0.00 in /  0 mm
12:17 81.5 °F /  27.5 °C 71.2 °F /  21.8 °C 29.78 in /  1008.4 hPa ENE 2.7 mph /  4.3 km/h 4.6 mph /  7.4 km/h 71 % 0.00 in /  0 mm
12:22 81.5 °F /  27.5 °C 71.2 °F /  21.8 °C 29.78 in /  1008.4 hPa ENE 2.1 mph /  3.4 km/h 3.5 mph /  5.6 km/h 71 % 0.00 in /  0 mm
12:27 81.5 °F /  27.5 °C 70.8 °F /  21.6 °C 29.78 in /  1008.4 hPa NE 3.6 mph /  5.8 km/h 5.8 mph /  9.3 km/h 70 % 0.00 in /  0 mm
12:32 81.2 °F /  27.3 °C 70.9 °F /  21.6 °C 29.78 in /  1008.4 hPa ENE 2.8 mph /  4.5 km/h 4.6 mph /  7.4 km/h 71 % 0.00 in /  0 mm
12:37 81.1 °F /  27.3 °C 71.2 °F /  21.8 °C 29.78 in /  1008.4 hPa ENE 1.8 mph /  2.9 km/h 3.5 mph /  5.6 km/h 72 % 0.00 in /  0 mm
12:42 81.0 °F /  27.2 °C 70.7 °F /  21.5 °C 29.78 in /  1008.4 hPa ENE 3.5 mph /  5.6 km/h 8.1 mph /  13 km/h 71 % 0.00 in /  0 mm
12:47 80.9 °F /  27.2 °C 70.6 °F /  21.4 °C 29.78 in /  1008.4 hPa NE 3.2 mph /  5.1 km/h 4.0 mph /  6.4 km/h 71 % 0.00 in /  0 mm
12:52 80.5 °F /  26.9 °C 70.2 °F /  21.2 °C 29.78 in /  1008.4 hPa ENE 2.8 mph /  4.5 km/h 4.6 mph /  7.4 km/h 71 % 0.00 in /  0 mm
12:57 80.2 °F /  26.8 °C 70.4 °F /  21.3 °C 29.79 in /  1008.7 hPa ENE 2.6 mph /  4.2 km/h 4.6 mph /  7.4 km/h 72 % 0.00 in /  0 mm
13:02 80.0 °F /  26.7 °C 71.0 °F /  21.7 °C 29.79 in /  1008.7 hPa ENE 2.0 mph /  3.2 km/h 4.0 mph /  6.4 km/h 74 % 0.00 in /  0 mm
13:07 79.7 °F /  26.5 °C 69.9 °F /  21.1 °C 29.79 in /  1008.7 hPa ENE 2.8 mph /  4.5 km/h 5.8 mph /  9.3 km/h 72 % 0.00 in /  0 mm
13:12 79.3 °F /  26.3 °C 70.3 °F /  21.3 °C 29.79 in /  1008.7 hPa ENE 1.9 mph /  3.1 km/h 3.5 mph /  5.6 km/h 74 % 0.00 in /  0 mm
13:17 78.9 °F /  26.1 °C 70.3 °F /  21.3 °C 29.79 in /  1008.7 hPa ENE 1.9 mph /  3.1 km/h 3.5 mph /  5.6 km/h 75 % 0.00 in /  0 mm
13:22 79.1 °F /  26.2 °C 70.1 °F /  21.2 °C 29.79 in /  1008.7 hPa ENE 3.1 mph /  5 km/h 4.6 mph /  7.4 km/h 74 % 0.00 in /  0 mm
13:27 79.2 °F /  26.2 °C 69.8 °F /  21 °C 29.79 in /  1008.7 hPa ENE 2.8 mph /  4.5 km/h 4.6 mph /  7.4 km/h 73 % 0.00 in /  0 mm
13:29 79.3 °F /  26.3 °C 70.7 °F /  21.5 °C 29.79 in /  1008.7 hPa ENE 2.7 mph /  4.3 km/h 5.8 mph /  9.3 km/h 75 % 0.00 in /  0 mm
13:34 79.3 °F /  26.3 °C 70.7 °F /  21.5 °C 29.79 in /  1008.7 hPa ENE 1.8 mph /  2.9 km/h 3.5 mph /  5.6 km/h 75 % 0.00 in /  0 mm
13:39 79.8 °F /  26.6 °C 71.9 °F /  22.2 °C 29.78 in /  1008.4 hPa NE 2.2 mph /  3.5 km/h 4.0 mph /  6.4 km/h 77 % 0.00 in /  0 mm
13:44 80.2 °F /  26.8 °C 70.8 °F /  21.6 °C 29.78 in /  1008.4 hPa ENE 2.1 mph /  3.4 km/h 3.5 mph /  5.6 km/h 73 % 0.00 in /  0 mm
13:49 80.4 °F /  26.9 °C 71.3 °F /  21.8 °C 29.78 in /  1008.4 hPa ENE 2.8 mph /  4.5 km/h 4.6 mph /  7.4 km/h 74 % 0.00 in /  0 mm
13:54 80.5 °F /  26.9 °C 71.4 °F /  21.9 °C 29.78 in /  1008.4 hPa ENE 2.6 mph /  4.2 km/h 3.5 mph /  5.6 km/h 74 % 0.00 in /  0 mm
13:59 80.4 °F /  26.9 °C 71.7 °F /  22.1 °C 29.78 in /  1008.4 hPa ENE 2.0 mph /  3.2 km/h 3.5 mph /  5.6 km/h 75 % 0.00 in /  0 mm
14:04 80.3 °F /  26.8 °C 71.6 °F /  22 °C 29.79 in /  1008.7 hPa ENE 2.0 mph /  3.2 km/h 3.5 mph /  5.6 km/h 75 % 0.00 in /  0 mm
14:09 80.2 °F /  26.8 °C 71.6 °F /  22 °C 29.79 in /  1008.7 hPa ENE 1.8 mph /  2.9 km/h 3.5 mph /  5.6 km/h 75 % 0.00 in /  0 mm
14:14 79.9 °F /  26.6 °C 71.3 °F /  21.8 °C 29.78 in /  1008.4 hPa ENE 2.1 mph /  3.4 km/h 3.5 mph /  5.6 km/h 75 % 0.00 in /  0 mm
14:19 80.1 °F /  26.7 °C 72.2 °F /  22.3 °C 29.78 in /  1008.4 hPa ENE 2.1 mph /  3.4 km/h 3.5 mph /  5.6 km/h 77 % 0.00 in /  0 mm
14:24 80.4 °F /  26.9 °C 72.1 °F /  22.3 °C 29.78 in /  1008.4 hPa East 2.3 mph /  3.7 km/h 3.5 mph /  5.6 km/h 76 % 0.00 in /  0 mm
14:29 80.4 °F /  26.9 °C 71.7 °F /  22.1 °C 29.78 in /  1008.4 hPa East 2.6 mph /  4.2 km/h 3.5 mph /  5.6 km/h 75 % 0.00 in /  0 mm
14:34 80.1 °F /  26.7 °C 71.1 °F /  21.7 °C 29.78 in /  1008.4 hPa East 2.2 mph /  3.5 km/h 3.5 mph /  5.6 km/h 74 % 0.00 in /  0 mm
14:39 79.8 °F /  26.6 °C 70.8 °F /  21.6 °C 29.78 in /  1008.4 hPa East 1.8 mph /  2.9 km/h 3.5 mph /  5.6 km/h 74 % 0.00 in /  0 mm
14:44 79.4 °F /  26.3 °C 70.8 °F /  21.6 °C 29.78 in /  1008.4 hPa East 2.1 mph /  3.4 km/h 4.6 mph /  7.4 km/h 75 % 0.00 in /  0 mm
14:49 79.1 °F /  26.2 °C 70.9 °F /  21.6 °C 29.78 in /  1008.4 hPa NE 2.3 mph /  3.7 km/h 3.5 mph /  5.6 km/h 76 % 0.00 in /  0 mm
14:54 79.1 °F /  26.2 °C 70.9 °F /  21.6 °C 29.78 in /  1008.4 hPa ENE 1.6 mph /  2.6 km/h 3.5 mph /  5.6 km/h 76 % 0.00 in /  0 mm
14:59 79.2 °F /  26.2 °C 71.0 °F /  21.7 °C 29.78 in /  1008.4 hPa East 1.2 mph /  1.9 km/h 2.3 mph /  3.7 km/h 76 % 0.00 in /  0 mm
15:04 79.2 °F /  26.2 °C 70.6 °F /  21.4 °C 29.78 in /  1008.4 hPa East 1.8 mph /  2.9 km/h 3.5 mph /  5.6 km/h 75 % 0.00 in /  0 mm
15:09 79.0 °F /  26.1 °C 70.8 °F /  21.6 °C 29.78 in /  1008.4 hPa East 1.4 mph /  2.3 km/h 2.3 mph /  3.7 km/h 76 % 0.00 in /  0 mm
15:14 78.9 °F /  26.1 °C 71.1 °F /  21.7 °C 29.78 in /  1008.4 hPa East 1.5 mph /  2.4 km/h 3.5 mph /  5.6 km/h 77 % 0.00 in /  0 mm
15:19 78.5 °F /  25.8 °C 70.3 °F /  21.3 °C 29.77 in /  1008 hPa ESE 1.5 mph /  2.4 km/h 2.3 mph /  3.7 km/h 76 % 0.00 in /  0 mm
15:24 78.3 °F /  25.7 °C 70.1 °F /  21.2 °C 29.77 in /  1008 hPa ESE 1.1 mph /  1.8 km/h 3.5 mph /  5.6 km/h 76 % 0.00 in /  0 mm
15:29 78.1 °F /  25.6 °C 69.9 °F /  21.1 °C 29.78 in /  1008.4 hPa ESE 1.3 mph /  2.1 km/h 2.3 mph /  3.7 km/h 76 % 0.00 in /  0 mm
15:34 77.9 °F /  25.5 °C 69.7 °F /  20.9 °C 29.78 in /  1008.4 hPa ESE 0.7 mph /  1.1 km/h 2.3 mph /  3.7 km/h 76 % 0.00 in /  0 mm
15:39 77.8 °F /  25.4 °C 70.0 °F /  21.1 °C 29.78 in /  1008.4 hPa ESE 0.4 mph /  0.6 km/h 1.2 mph /  1.9 km/h 77 % 0.00 in /  0 mm
15:44 77.5 °F /  25.3 °C 69.7 °F /  20.9 °C 29.78 in /  1008.4 hPa ESE 0.6 mph /  1 km/h 2.3 mph /  3.7 km/h 77 % 0.00 in /  0 mm
15:49 77.3 °F /  25.2 °C 69.5 °F /  20.8 °C 29.78 in /  1008.4 hPa ESE 0.3 mph /  0.5 km/h 1.2 mph /  1.9 km/h 77 % 0.00 in /  0 mm
15:54 77.1 °F /  25.1 °C 69.7 °F /  20.9 °C 29.78 in /  1008.4 hPa ESE 0.2 mph /  0.3 km/h 2.3 mph /  3.7 km/h 78 % 0.00 in /  0 mm
15:59 77.0 °F /  25 °C 69.6 °F /  20.9 °C 29.78 in /  1008.4 hPa ESE 0.2 mph /  0.3 km/h 1.2 mph /  1.9 km/h 78 % 0.00 in /  0 mm
16:04 76.9 °F /  24.9 °C 69.5 °F /  20.8 °C 29.78 in /  1008.4 hPa Calm   1.2 mph /  1.9 km/h 78 % 0.00 in /  0 mm
16:10 76.8 °F /  24.9 °C 69.4 °F /  20.8 °C 29.78 in /  1008.4 hPa Calm     78 % 0.00 in /  0 mm
16:15 76.8 °F /  24.9 °C 69.4 °F /  20.8 °C 29.78 in /  1008.4 hPa Calm     78 % 0.00 in /  0 mm
16:20 76.8 °F /  24.9 °C 69.8 °F /  21 °C 29.78 in /  1008.4 hPa Calm   1.2 mph /  1.9 km/h 79 % 0.00 in /  0 mm
16:25 76.8 °F /  24.9 °C 70.2 °F /  21.2 °C 29.78 in /  1008.4 hPa Calm   1.2 mph /  1.9 km/h 80 % 0.00 in /  0 mm
16:30 76.8 °F /  24.9 °C 70.2 °F /  21.2 °C 29.78 in /  1008.4 hPa Calm   1.2 mph /  1.9 km/h 80 % 0.00 in /  0 mm
16:35 76.9 °F /  24.9 °C 70.3 °F /  21.3 °C 29.78 in /  1008.4 hPa ESE 0.5 mph /  0.8 km/h 2.3 mph /  3.7 km/h 80 % 0.00 in /  0 mm
16:40 77.0 °F /  25 °C 70.4 °F /  21.3 °C 29.78 in /  1008.4 hPa Calm   1.2 mph /  1.9 km/h 80 % 0.00 in /  0 mm
16:45 77.2 °F /  25.1 °C 70.9 °F /  21.6 °C 29.78 in /  1008.4 hPa Calm   1.2 mph /  1.9 km/h 81 % 0.00 in /  0 mm
16:50 77.3 °F /  25.2 °C 71.0 °F /  21.7 °C 29.78 in /  1008.4 hPa ESE 0.4 mph /  0.6 km/h 2.0 mph /  3.2 km/h 81 % 0.00 in /  0 mm
16:55 77.5 °F /  25.3 °C 71.2 °F /  21.8 °C 29.78 in /  1008.4 hPa ESE 1.6 mph /  2.6 km/h 4.0 mph /  6.4 km/h 81 % 0.00 in /  0 mm
17:00 77.6 °F /  25.3 °C 70.9 °F /  21.6 °C 29.79 in /  1008.7 hPa Calm   1.2 mph /  1.9 km/h 80 % 0.00 in /  0 mm
17:05 77.6 °F /  25.3 °C 70.6 °F /  21.4 °C 29.79 in /  1008.7 hPa Calm     79 % 0.00 in /  0 mm
17:10 77.7 °F /  25.4 °C 70.7 °F /  21.5 °C 29.79 in /  1008.7 hPa Calm   1.2 mph /  1.9 km/h 79 % 0.00 in /  0 mm
17:15 77.7 °F /  25.4 °C 70.3 °F /  21.3 °C 29.79 in /  1008.7 hPa ESE 0.3 mph /  0.5 km/h 2.3 mph /  3.7 km/h 78 % 0.00 in /  0 mm
17:20 77.7 °F /  25.4 °C 70.3 °F /  21.3 °C 29.79 in /  1008.7 hPa Calm   2.3 mph /  3.7 km/h 78 % 0.00 in /  0 mm
17:25 77.7 °F /  25.4 °C 70.7 °F /  21.5 °C 29.79 in /  1008.7 hPa Calm     79 % 0.00 in /  0 mm
17:30 77.6 °F /  25.3 °C 69.8 °F /  21 °C 29.79 in /  1008.7 hPa ESE 0.9 mph /  1.4 km/h 3.5 mph /  5.6 km/h 77 % 0.00 in /  0 mm
17:35 77.6 °F /  25.3 °C 70.2 °F /  21.2 °C 29.79 in /  1008.7 hPa Calm     78 % 0.00 in /  0 mm
17:41 77.5 °F /  25.3 °C 70.5 °F /  21.4 °C 29.79 in /  1008.7 hPa Calm     79 % 0.00 in /  0 mm
17:46 77.5 °F /  25.3 °C 70.5 °F /  21.4 °C 29.79 in /  1008.7 hPa Calm     79 % 0.00 in /  0 mm
17:51 77.4 °F /  25.2 °C 70.4 °F /  21.3 °C 29.79 in /  1008.7 hPa Calm   1.0 mph /  1.6 km/h 79 % 0.00 in /  0 mm
17:56 77.3 °F /  25.2 °C 69.9 °F /  21.1 °C 29.79 in /  1008.7 hPa Calm   2.0 mph /  3.2 km/h 78 % 0.00 in /  0 mm
18:01 77.2 °F /  25.1 °C 69.8 °F /  21 °C 29.79 in /  1008.7 hPa ESE 0.3 mph /  0.5 km/h 1.2 mph /  1.9 km/h 78 % 0.00 in /  0 mm
18:06 77.1 °F /  25.1 °C 68.9 °F /  20.5 °C 29.79 in /  1008.7 hPa Calm   2.0 mph /  3.2 km/h 76 % 0.00 in /  0 mm
18:11 77.0 °F /  25 °C 69.2 °F /  20.7 °C 29.79 in /  1008.7 hPa Calm   1.0 mph /  1.6 km/h 77 % 0.00 in /  0 mm
18:16 76.9 °F /  24.9 °C 69.1 °F /  20.6 °C 29.79 in /  1008.7 hPa Calm   1.0 mph /  1.6 km/h 77 % 0.00 in /  0 mm
18:18 76.8 °F /  24.9 °C 69.4 °F /  20.8 °C 29.79 in /  1008.7 hPa SSE 0.3 mph /  0.5 km/h 1.2 mph /  1.9 km/h 78 % 0.00 in /  0 mm
18:23 76.8 °F /  24.9 °C 69.0 °F /  20.6 °C 29.79 in /  1008.7 hPa SSE 0.1 mph /  0.2 km/h 1.2 mph /  1.9 km/h 77 % 0.00 in /  0 mm
18:28 76.6 °F /  24.8 °C 68.8 °F /  20.4 °C 29.79 in /  1008.7 hPa SSE 0.1 mph /  0.2 km/h 1.2 mph /  1.9 km/h 77 % 0.00 in /  0 mm
18:33 76.6 °F /  24.8 °C 68.8 °F /  20.4 °C 29.79 in /  1008.7 hPa Calm   1.2 mph /  1.9 km/h 77 % 0.00 in /  0 mm
18:38 76.4 °F /  24.7 °C 68.7 °F /  20.4 °C 29.79 in /  1008.7 hPa Calm     77 % 0.00 in /  0 mm
18:43 76.3 °F /  24.6 °C 68.6 °F /  20.3 °C 29.80 in /  1009 hPa SSE 1.5 mph /  2.4 km/h 4.0 mph /  6.4 km/h 77 % 0.00 in /  0 mm
18:48 76.2 °F /  24.6 °C 68.5 °F /  20.3 °C 29.79 in /  1008.7 hPa SE 0.9 mph /  1.4 km/h 3.0 mph /  4.8 km/h 77 % 0.00 in /  0 mm
18:53 76.1 °F /  24.5 °C 68.4 °F /  20.2 °C 29.79 in /  1008.7 hPa SE 0.7 mph /  1.1 km/h 4.0 mph /  6.4 km/h 77 % 0.00 in /  0 mm
18:58 76.0 °F /  24.4 °C 68.6 °F /  20.3 °C 29.79 in /  1008.7 hPa Calm   1.2 mph /  1.9 km/h 78 % 0.00 in /  0 mm
19:03 75.8 °F /  24.3 °C 68.1 °F /  20.1 °C 29.79 in /  1008.7 hPa SE 1.8 mph /  2.9 km/h 3.5 mph /  5.6 km/h 77 % 0.00 in /  0 mm
19:08 75.7 °F /  24.3 °C 68.0 °F /  20 °C 29.79 in /  1008.7 hPa SE 2.1 mph /  3.4 km/h 7.0 mph /  11.3 km/h 77 % 0.00 in /  0 mm
19:13 75.5 °F /  24.2 °C 67.8 °F /  19.9 °C 29.79 in /  1008.7 hPa SE 0.3 mph /  0.5 km/h 2.0 mph /  3.2 km/h 77 % 0.00 in /  0 mm
19:18 75.4 °F /  24.1 °C 67.7 °F /  19.8 °C 29.79 in /  1008.7 hPa SE 0.7 mph /  1.1 km/h 3.5 mph /  5.6 km/h 77 % 0.00 in /  0 mm
19:23 75.2 °F /  24 °C 67.5 °F /  19.7 °C 29.80 in /  1009 hPa SE 0.7 mph /  1.1 km/h 5.8 mph /  9.3 km/h 77 % 0.00 in /  0 mm
19:28 75.0 °F /  23.9 °C 67.3 °F /  19.6 °C 29.79 in /  1008.7 hPa ESE 0.6 mph /  1 km/h 1.2 mph /  1.9 km/h 77 % 0.00 in /  0 mm
19:33 74.9 °F /  23.8 °C 67.2 °F /  19.6 °C 29.79 in /  1008.7 hPa SE 1.7 mph /  2.7 km/h 3.5 mph /  5.6 km/h 77 % 0.00 in /  0 mm
19:38 74.7 °F /  23.7 °C 67.0 °F /  19.4 °C 29.80 in /  1009 hPa SE 0.9 mph /  1.4 km/h 3.5 mph /  5.6 km/h 77 % 0.00 in /  0 mm
19:43 74.7 °F /  23.7 °C 67.4 °F /  19.7 °C 29.80 in /  1009 hPa SE 0.3 mph /  0.5 km/h 2.3 mph /  3.7 km/h 78 % 0.00 in /  0 mm
19:48 74.5 °F /  23.6 °C 67.2 °F /  19.6 °C 29.80 in /  1009 hPa SE 1.5 mph /  2.4 km/h 4.6 mph /  7.4 km/h 78 % 0.00 in /  0 mm
19:53 74.4 °F /  23.6 °C 67.1 °F /  19.5 °C 29.80 in /  1009 hPa Calm   1.2 mph /  1.9 km/h 78 % 0.00 in /  0 mm
19:58 74.3 °F /  23.5 °C 67.0 °F /  19.4 °C 29.80 in /  1009 hPa Calm   1.2 mph /  1.9 km/h 78 % 0.00 in /  0 mm
20:04 74.2 °F /  23.4 °C 67.3 °F /  19.6 °C 29.80 in /  1009 hPa Calm   1.2 mph /  1.9 km/h 79 % 0.00 in /  0 mm
20:09 74.1 °F /  23.4 °C 67.2 °F /  19.6 °C 29.81 in /  1009.4 hPa Calm   2.3 mph /  3.7 km/h 79 % 0.00 in /  0 mm
20:14 74.0 °F /  23.3 °C 67.1 °F /  19.5 °C 29.81 in /  1009.4 hPa SE 0.8 mph /  1.3 km/h 4.0 mph /  6.4 km/h 79 % 0.00 in /  0 mm
20:19 73.8 °F /  23.2 °C 67.2 °F /  19.6 °C 29.81 in /  1009.4 hPa SE 2.4 mph /  3.9 km/h 8.1 mph /  13 km/h 80 % 0.00 in /  0 mm
20:24 73.7 °F /  23.2 °C 67.5 °F /  19.7 °C 29.81 in /  1009.4 hPa SE 0.2 mph /  0.3 km/h 2.3 mph /  3.7 km/h 81 % 0.00 in /  0 mm
20:29 73.6 °F /  23.1 °C 67.4 °F /  19.7 °C 29.81 in /  1009.4 hPa Calm   1.0 mph /  1.6 km/h 81 % 0.00 in /  0 mm
20:34 73.5 °F /  23.1 °C 67.3 °F /  19.6 °C 29.81 in /  1009.4 hPa SE 2.2 mph /  3.5 km/h 4.6 mph /  7.4 km/h 81 % 0.00 in /  0 mm
20:39 73.4 °F /  23 °C 67.6 °F /  19.8 °C 29.82 in /  1009.7 hPa SE 0.6 mph /  1 km/h 2.3 mph /  3.7 km/h 82 % 0.00 in /  0 mm
20:44 73.3 °F /  22.9 °C 67.5 °F /  19.7 °C 29.82 in /  1009.7 hPa Calm   1.2 mph /  1.9 km/h 82 % 0.00 in /  0 mm
20:49 73.3 °F /  22.9 °C 67.8 °F /  19.9 °C 29.82 in /  1009.7 hPa Calm     83 % 0.00 in /  0 mm
20:54 73.1 °F /  22.8 °C 67.6 °F /  19.8 °C 29.81 in /  1009.4 hPa Calm   1.2 mph /  1.9 km/h 83 % 0.00 in /  0 mm
20:59 73.0 °F /  22.8 °C 67.5 °F /  19.7 °C 29.81 in /  1009.4 hPa SE 0.1 mph /  0.2 km/h 3.5 mph /  5.6 km/h 83 % 0.00 in /  0 mm
21:04 72.9 °F /  22.7 °C 67.4 °F /  19.7 °C 29.81 in /  1009.4 hPa SE 0.2 mph /  0.3 km/h 2.3 mph /  3.7 km/h 83 % 0.00 in /  0 mm
21:09 72.8 °F /  22.7 °C 67.3 °F /  19.6 °C 29.81 in /  1009.4 hPa SE 0.5 mph /  0.8 km/h 1.2 mph /  1.9 km/h 83 % 0.00 in /  0 mm
21:14 72.8 °F /  22.7 °C 67.7 °F /  19.8 °C 29.81 in /  1009.4 hPa Calm   1.2 mph /  1.9 km/h 84 % 0.00 in /  0 mm
21:19 72.7 °F /  22.6 °C 67.6 °F /  19.8 °C 29.82 in /  1009.7 hPa SE 0.4 mph /  0.6 km/h 2.3 mph /  3.7 km/h 84 % 0.00 in /  0 mm
21:24 72.6 °F /  22.6 °C 67.5 °F /  19.7 °C 29.82 in /  1009.7 hPa SE 0.2 mph /  0.3 km/h 1.2 mph /  1.9 km/h 84 % 0.00 in /  0 mm
21:29 72.4 °F /  22.4 °C 67.3 °F /  19.6 °C 29.83 in /  1010 hPa SE 0.3 mph /  0.5 km/h 4.6 mph /  7.4 km/h 84 % 0.00 in /  0 mm
21:34 72.4 °F /  22.4 °C 67.3 °F /  19.6 °C 29.83 in /  1010 hPa SE 0.2 mph /  0.3 km/h 2.3 mph /  3.7 km/h 84 % 0.00 in /  0 mm
21:39 72.2 °F /  22.3 °C 67.1 °F /  19.5 °C 29.83 in /  1010 hPa SE 0.5 mph /  0.8 km/h 2.3 mph /  3.7 km/h 84 % 0.00 in /  0 mm
21:44 72.1 °F /  22.3 °C 67.0 °F /  19.4 °C 29.83 in /  1010 hPa Calm     84 % 0.00 in /  0 mm
21:49 72.1 °F /  22.3 °C 67.0 °F /  19.4 °C 29.83 in /  1010 hPa Calm     84 % 0.00 in /  0 mm
21:54 72.0 °F /  22.2 °C 66.9 °F /  19.4 °C 29.83 in /  1010 hPa Calm   1.2 mph /  1.9 km/h 84 % 0.00 in /  0 mm
21:59 71.9 °F /  22.2 °C 67.1 °F /  19.5 °C 29.82 in /  1009.7 hPa SE 0.4 mph /  0.6 km/h 1.2 mph /  1.9 km/h 85 % 0.00 in /  0 mm
22:04 71.7 °F /  22.1 °C 66.6 °F /  19.2 °C 29.83 in /  1010 hPa SE 0.6 mph /  1 km/h 2.3 mph /  3.7 km/h 84 % 0.00 in /  0 mm
22:09 71.6 °F /  22 °C 66.5 °F /  19.2 °C 29.83 in /  1010 hPa SE 0.5 mph /  0.8 km/h 2.3 mph /  3.7 km/h 84 % 0.00 in /  0 mm
22:14 71.5 °F /  21.9 °C 66.4 °F /  19.1 °C 29.83 in /  1010 hPa SE 0.3 mph /  0.5 km/h 1.2 mph /  1.9 km/h 84 % 0.00 in /  0 mm
22:19 71.4 °F /  21.9 °C 66.3 °F /  19.1 °C 29.83 in /  1010 hPa SE 0.6 mph /  1 km/h 3.5 mph /  5.6 km/h 84 % 0.00 in /  0 mm
22:24 71.3 °F /  21.8 °C 66.2 °F /  19 °C 29.83 in /  1010 hPa SE 1.3 mph /  2.1 km/h 3.5 mph /  5.6 km/h 84 % 0.00 in /  0 mm
22:29 71.2 °F /  21.8 °C 66.1 °F /  18.9 °C 29.82 in /  1009.7 hPa SE 2.8 mph /  4.5 km/h 5.8 mph /  9.3 km/h 84 % 0.00 in /  0 mm
22:34 71.2 °F /  21.8 °C 66.1 °F /  18.9 °C 29.83 in /  1010 hPa SE 1.2 mph /  1.9 km/h 3.5 mph /  5.6 km/h 84 % 0.00 in /  0 mm
22:39 71.1 °F /  21.7 °C 66.0 °F /  18.9 °C 29.83 in /  1010 hPa SE 0.6 mph /  1 km/h 3.5 mph /  5.6 km/h 84 % 0.00 in /  0 mm
22:44 71.0 °F /  21.7 °C 65.9 °F /  18.8 °C 29.83 in /  1010 hPa Calm   1.2 mph /  1.9 km/h 84 % 0.00 in /  0 mm
22:49 71.0 °F /  21.7 °C 65.9 °F /  18.8 °C 29.82 in /  1009.7 hPa SE 0.4 mph /  0.6 km/h 3.5 mph /  5.6 km/h 84 % 0.00 in /  0 mm
22:54 70.9 °F /  21.6 °C 65.8 °F /  18.8 °C 29.82 in /  1009.7 hPa ESE 0.5 mph /  0.8 km/h 1.2 mph /  1.9 km/h 84 % 0.00 in /  0 mm
22:59 70.8 °F /  21.6 °C 66.1 °F /  18.9 °C 29.82 in /  1009.7 hPa SE 0.8 mph /  1.3 km/h 3.5 mph /  5.6 km/h 85 % 0.00 in /  0 mm
23:04 70.8 °F /  21.6 °C 66.1 °F /  18.9 °C 29.82 in /  1009.7 hPa SE 1.1 mph /  1.8 km/h 3.5 mph /  5.6 km/h 85 % 0.00 in /  0 mm
23:09 70.7 °F /  21.5 °C 66.0 °F /  18.9 °C 29.83 in /  1010 hPa SE 1.3 mph /  2.1 km/h 3.5 mph /  5.6 km/h 85 % 0.00 in /  0 mm
23:14 70.7 °F /  21.5 °C 66.0 °F /  18.9 °C 29.83 in /  1010 hPa SE 0.8 mph /  1.3 km/h 2.0 mph /  3.2 km/h 85 % 0.00 in /  0 mm
23:19 70.7 °F /  21.5 °C 66.0 °F /  18.9 °C 29.83 in /  1010 hPa SE 1.1 mph /  1.8 km/h 3.5 mph /  5.6 km/h 85 % 0.00 in /  0 mm
23:24 70.6 °F /  21.4 °C 65.9 °F /  18.8 °C 29.83 in /  1010 hPa SE 0.2 mph /  0.3 km/h 1.2 mph /  1.9 km/h 85 % 0.00 in /  0 mm
23:29 70.7 °F /  21.5 °C 66.0 °F /  18.9 °C 29.83 in /  1010 hPa Calm   2.3 mph /  3.7 km/h 85 % 0.00 in /  0 mm
23:34 70.7 °F /  21.5 °C 66.0 °F /  18.9 °C 29.84 in /  1010.4 hPa ESE 0.4 mph /  0.6 km/h 1.2 mph /  1.9 km/h 85 % 0.00 in /  0 mm
23:40 70.6 °F /  21.4 °C 65.9 °F /  18.8 °C 29.84 in /  1010.4 hPa Calm   2.3 mph /  3.7 km/h 85 % 0.00 in /  0 mm
23:45 70.7 °F /  21.5 °C 66.3 °F /  19.1 °C 29.84 in /  1010.4 hPa ESE 0.1 mph /  0.2 km/h 1.2 mph /  1.9 km/h 86 % 0.00 in /  0 mm
23:50 70.7 °F /  21.5 °C 66.0 °F /  18.9 °C 29.84 in /  1010.4 hPa ESE 0.5 mph /  0.8 km/h 3.5 mph /  5.6 km/h 85 % 0.00 in /  0 mm
23:55 70.7 °F /  21.5 °C 66.3 °F /  19.1 °C 29.84 in /  1010.4 hPa ESE 0.9 mph /  1.4 km/h 2.3 mph /  3.7 km/h 86 % 0.00 in /  0 mm
Crab Meadow Weather
Compliments of Weather Underground - 3 mb

Script developed by  Jim McMurry - jmcmurry@mwt.net Adapted for the template by  Wim van der Kuil - Leuven-Template.eu

Astronomy: One day on Jupiter is only 9 hours and 55 minutes.